createdAt,value
2023-01-17T00:00:01.873Z,2.83
2023-01-17T00:02:31.067Z,4.35
2023-01-17T00:05:18.134Z,2.25
2023-01-17T00:08:04.177Z,4.53
2023-01-17T00:10:32.103Z,5.95
2023-01-17T00:13:03.473Z,2.15
2023-01-17T00:15:32.357Z,1.08
2023-01-17T00:18:00.337Z,1.48
2023-01-17T00:20:49.753Z,1.60
2023-01-17T00:23:42.654Z,1.10
2023-01-17T00:26:18.330Z,2.15
2023-01-17T00:28:46.865Z,1.15
2023-01-17T00:31:16.213Z,1.50
2023-01-17T00:33:43.971Z,2.15
2023-01-17T00:36:12.130Z,2.45
2023-01-17T00:38:40.967Z,2.17
2023-01-17T00:41:15.936Z,4.38
2023-01-17T00:44:02.528Z,3.08
2023-01-17T00:46:48.605Z,4.65
2023-01-17T00:49:35.436Z,2.47
2023-01-17T00:52:21.727Z,1.92
2023-01-17T00:55:08.601Z,2.03
2023-01-17T00:57:54.656Z,2.08
2023-01-17T01:00:40.882Z,2.55
2023-01-17T01:03:31.072Z,4.75
2023-01-17T01:06:17.373Z,2.83
2023-01-17T01:09:03.652Z,3.17
2023-01-17T01:11:49.749Z,5.72
2023-01-17T01:14:36.608Z,2.88
2023-01-17T01:17:23.019Z,1.95
2023-01-17T01:20:09.210Z,7.20
2023-01-17T01:22:55.343Z,3.83
2023-01-17T01:25:41.333Z,3.97
2023-01-17T01:28:33.745Z,2.55
2023-01-17T01:31:21.885Z,3.03
2023-01-17T01:33:52.565Z,3.20
2023-01-17T01:36:20.603Z,3.72
2023-01-17T01:38:50.171Z,3.17
2023-01-17T01:41:18.180Z,3.58
2023-01-17T01:43:49.453Z,6.72
2023-01-17T01:46:40.103Z,1.70
2023-01-17T01:49:20.657Z,5.53
2023-01-17T01:51:55.704Z,5.20
2023-01-17T01:54:30.091Z,4.73
2023-01-17T01:57:02.266Z,3.60
2023-01-17T01:59:31.044Z,3.88
2023-01-17T02:01:58.997Z,5.57
2023-01-17T02:04:29.052Z,6.32
2023-01-17T02:07:10.383Z,5.47
2023-01-17T02:09:38.561Z,3.97
2023-01-17T02:12:07.474Z,3.17
2023-01-17T02:14:35.166Z,3.40
2023-01-17T02:17:34.043Z,4.93
2023-01-17T02:20:32.597Z,3.40
2023-01-17T02:23:26.963Z,2.47
2023-01-17T02:26:37.981Z,3.70
2023-01-17T02:29:53.539Z,3.45
2023-01-17T02:32:41.131Z,6.18
2023-01-17T02:35:17.492Z,6.28
2023-01-17T02:38:11.701Z,4.65
2023-01-17T02:40:52.363Z,2.35
2023-01-17T02:43:23.590Z,4.32
2023-01-17T02:45:51.663Z,3.60
2023-01-17T02:48:25.041Z,5.63
2023-01-17T02:51:23.466Z,3.08
2023-01-17T02:54:09.737Z,4.45
2023-01-17T02:57:18.171Z,4.30
2023-01-17T02:59:55.808Z,2.47
2023-01-17T03:02:34.913Z,4.13
2023-01-17T03:05:09.574Z,3.92
2023-01-17T03:07:40.051Z,4.28
2023-01-17T03:10:12.041Z,8.57
2023-01-17T03:12:40.609Z,5.10
2023-01-17T03:15:15.148Z,6.00
2023-01-17T03:17:48.550Z,3.55
2023-01-17T03:20:16.898Z,6.22
2023-01-17T03:22:44.545Z,3.88
2023-01-17T03:25:12.063Z,4.55
2023-01-17T03:27:41.013Z,5.18
2023-01-17T03:30:09.621Z,2.67
2023-01-17T03:32:37.305Z,1.92
2023-01-17T03:35:05.785Z,2.28
2023-01-17T03:37:33.458Z,3.70
2023-01-17T03:40:01.175Z,5.28
2023-01-17T03:42:28.879Z,2.78
2023-01-17T03:44:56.762Z,1.90
2023-01-17T03:47:24.738Z,2.25
2023-01-17T03:49:52.556Z,2.53
2023-01-17T03:52:20.246Z,4.63
2023-01-17T03:54:48.507Z,2.85
2023-01-17T03:57:16.189Z,2.25
2023-01-17T03:59:43.810Z,2.40
2023-01-17T04:02:11.461Z,4.63
2023-01-17T04:04:41.116Z,3.10
2023-01-17T04:07:08.771Z,3.45
2023-01-17T04:09:36.518Z,2.85
2023-01-17T04:12:04.321Z,2.13
2023-01-17T04:14:31.933Z,3.38
2023-01-17T04:17:00.047Z,3.17
2023-01-17T04:19:27.724Z,1.70
2023-01-17T04:21:55.442Z,3.30
2023-01-17T04:24:23.201Z,7.70
2023-01-17T04:26:50.846Z,5.38
2023-01-17T04:29:18.570Z,4.05
2023-01-17T04:31:47.698Z,3.17
2023-01-17T04:36:47.973Z,3.00
2023-01-17T04:39:15.731Z,3.50
2023-01-17T04:41:43.935Z,5.82
2023-01-17T04:44:11.761Z,3.38
2023-01-17T04:46:39.293Z,5.95
2023-01-17T04:49:06.966Z,3.50
2023-01-17T04:51:34.644Z,3.65
2023-01-17T04:54:02.191Z,3.20
2023-01-17T04:56:29.702Z,5.43
2023-01-17T04:58:58.390Z,4.90
2023-01-17T05:01:26.166Z,3.03
2023-01-17T05:03:53.814Z,4.03
2023-01-17T05:06:21.515Z,4.40
2023-01-17T05:08:49.285Z,4.43
2023-01-17T05:11:17.913Z,3.13
2023-01-17T05:13:48.277Z,4.82
2023-01-17T05:16:19.392Z,3.03
2023-01-17T05:18:47.084Z,7.93
2023-01-17T05:21:14.701Z,4.13
2023-01-17T05:23:43.083Z,3.60
2023-01-17T05:26:10.869Z,4.10
2023-01-17T05:28:38.995Z,4.35
2023-01-17T05:31:06.904Z,3.47
2023-01-17T05:33:34.569Z,4.28
2023-01-17T05:36:03.501Z,5.40
2023-01-17T05:38:31.424Z,6.10
2023-01-17T05:41:05.041Z,7.60
2023-01-17T05:43:32.760Z,5.88
2023-01-17T05:46:00.674Z,5.25
2023-01-17T05:48:28.638Z,4.20
2023-01-17T05:53:25.284Z,5.15
2023-01-17T05:55:53.056Z,5.13
2023-01-17T05:58:22.894Z,7.30
2023-01-17T06:00:50.758Z,5.05
2023-01-17T06:03:18.481Z,5.75
2023-01-17T06:05:47.487Z,7.30
2023-01-17T06:10:43.764Z,5.33
2023-01-17T06:13:15.335Z,4.30
2023-01-17T06:15:43.469Z,4.00
2023-01-17T06:18:14.129Z,5.03
2023-01-17T06:20:42.897Z,6.22
2023-01-17T06:23:14.952Z,4.03
2023-01-17T06:25:45.542Z,4.82
2023-01-17T06:28:16.049Z,8.32
2023-01-17T06:30:44.606Z,13.48
2023-01-17T06:33:13.481Z,12.63
2023-01-17T06:35:48.209Z,10.68
2023-01-17T06:38:19.576Z,11.88
2023-01-17T06:40:49.061Z,9.30
2023-01-17T06:43:16.885Z,8.35
2023-01-17T06:45:44.537Z,5.95
2023-01-17T06:48:12.345Z,10.40
2023-01-17T06:50:40.065Z,9.63
2023-01-17T06:53:07.954Z,15.18
2023-01-17T06:55:39.529Z,11.20
2023-01-17T06:58:08.745Z,8.48
2023-01-17T07:03:29.010Z,12.15
2023-01-17T07:06:02.648Z,8.15
2023-01-17T07:08:36.035Z,7.75
2023-01-17T07:11:08.174Z,10.20
2023-01-17T07:13:38.189Z,7.78
2023-01-17T07:16:07.463Z,7.63
2023-01-17T07:18:36.195Z,9.70
2023-01-17T07:21:04.232Z,5.30
2023-01-17T07:23:32.025Z,9.65
2023-01-17T07:26:02.511Z,11.07
2023-01-17T07:28:30.135Z,5.30
2023-01-17T07:30:57.772Z,6.93
2023-01-17T07:33:25.441Z,5.40
2023-01-17T07:35:53.135Z,8.55
2023-01-17T07:38:20.936Z,6.38
2023-01-17T07:40:48.865Z,7.18
2023-01-17T07:43:17.312Z,5.85
2023-01-17T07:45:50.901Z,12.23
2023-01-17T07:48:22.222Z,8.77
2023-01-17T07:50:58.424Z,14.82
2023-01-17T07:53:29.748Z,10.43
2023-01-17T07:56:05.408Z,9.18
2023-01-17T07:58:34.040Z,14.02
2023-01-17T08:01:10.381Z,8.35
2023-01-17T08:03:41.796Z,8.60
2023-01-17T08:06:19.337Z,9.25
2023-01-17T08:08:48.284Z,5.53
2023-01-17T08:11:16.344Z,9.60
2023-01-17T08:13:44.243Z,7.70
2023-01-17T08:16:13.692Z,10.30
2023-01-17T08:18:41.478Z,7.07
2023-01-17T08:21:16.668Z,8.77
2023-01-17T08:23:49.252Z,8.27
2023-01-17T08:26:22.099Z,7.22
2023-01-17T08:29:00.422Z,9.88
2023-01-17T08:31:35.398Z,10.95
2023-01-17T08:34:03.110Z,7.88
2023-01-17T08:36:33.612Z,9.65
2023-01-17T08:39:01.270Z,10.52
2023-01-17T08:41:28.894Z,8.80
2023-01-17T08:44:03.173Z,10.15
2023-01-17T08:46:34.002Z,8.57
2023-01-17T08:49:02.924Z,11.70
2023-01-17T08:51:32.372Z,15.23
2023-01-17T08:54:00.493Z,8.50
2023-01-17T08:56:28.485Z,9.02
2023-01-17T08:58:56.167Z,8.65
2023-01-17T09:01:27.065Z,9.80
2023-01-17T09:03:54.961Z,10.63
2023-01-17T09:06:22.983Z,8.32
2023-01-17T09:08:54.713Z,8.55
2023-01-17T09:11:22.562Z,8.88
2023-01-17T09:13:50.542Z,8.20
2023-01-17T09:16:18.500Z,9.38
2023-01-17T09:18:46.284Z,7.95
2023-01-17T09:21:18.173Z,14.18
2023-01-17T09:23:46.236Z,9.75
2023-01-17T09:26:26.449Z,8.40
2023-01-17T09:28:54.610Z,7.18
2023-01-17T09:31:23.858Z,8.32
2023-01-17T09:33:53.978Z,8.50
2023-01-17T09:36:22.363Z,10.05
2023-01-17T09:38:56.068Z,7.72
2023-01-17T09:41:29.103Z,7.28
2023-01-17T09:44:02.115Z,5.85
2023-01-17T09:46:37.835Z,7.85
2023-01-17T09:49:14.317Z,6.40
2023-01-17T09:51:42.729Z,8.57
2023-01-17T09:54:24.391Z,9.23
2023-01-17T09:57:34.918Z,6.78
2023-01-17T10:00:41.482Z,4.85
2023-01-17T10:03:42.876Z,6.70
2023-01-17T10:06:44.682Z,7.90
2023-01-17T10:09:37.674Z,6.03
2023-01-17T10:12:45.661Z,4.50
2023-01-17T10:15:35.898Z,5.07
2023-01-17T10:19:09.727Z,8.63
2023-01-17T10:21:45.045Z,7.40
2023-01-17T10:24:26.991Z,7.75
2023-01-17T10:26:57.679Z,6.25
2023-01-17T10:29:33.159Z,5.70
2023-01-17T10:32:02.432Z,3.92
2023-01-17T10:34:42.136Z,4.40
2023-01-17T10:37:44.203Z,5.10
2023-01-17T10:40:28.477Z,5.80
2023-01-17T10:43:17.967Z,2.63
2023-01-17T10:45:55.531Z,8.65
2023-01-17T10:48:38.900Z,2.95
2023-01-17T10:51:29.169Z,3.53
2023-01-17T10:54:21.654Z,5.85
2023-01-17T10:56:49.519Z,5.15
2023-01-17T10:59:33.587Z,3.30
2023-01-17T11:02:07.500Z,4.55
2023-01-17T11:05:14.500Z,3.67
2023-01-17T11:08:08.342Z,3.47
2023-01-17T11:11:03.313Z,2.33
2023-01-17T11:13:34.719Z,3.60
2023-01-17T11:16:10.315Z,4.90
2023-01-17T11:18:40.185Z,3.55
2023-01-17T11:21:23.370Z,2.13
2023-01-17T11:23:58.651Z,2.50
2023-01-17T11:26:31.078Z,4.82
2023-01-17T11:29:37.103Z,1.73
2023-01-17T11:32:23.186Z,3.97
2023-01-17T11:35:22.110Z,2.15
2023-01-17T11:38:15.192Z,4.65
2023-01-17T11:40:45.717Z,2.45
2023-01-17T11:43:21.478Z,1.52
2023-01-17T11:46:15.373Z,1.10
2023-01-17T11:48:47.875Z,2.20
2023-01-17T11:51:28.631Z,1.50
2023-01-17T11:54:20.761Z,0.95
2023-01-17T11:56:48.754Z,2.22
2023-01-17T11:59:22.159Z,2.65
2023-01-17T12:02:21.245Z,2.70
2023-01-17T12:05:20.376Z,2.17
2023-01-17T12:08:21.013Z,2.08
2023-01-17T12:11:08.382Z,1.80
2023-01-17T12:14:03.288Z,2.10
2023-01-17T12:16:45.931Z,2.70
2023-01-17T12:19:54.286Z,2.33
2023-01-17T12:23:20.414Z,4.97
2023-01-17T12:26:09.296Z,2.00
2023-01-17T12:29:04.198Z,2.70
2023-01-17T12:32:06.760Z,4.95
2023-01-17T12:34:47.201Z,1.92
2023-01-17T12:37:37.010Z,2.03
2023-01-17T12:40:24.150Z,3.65
2023-01-17T12:43:23.198Z,2.95
2023-01-17T12:45:54.656Z,2.70
2023-01-17T12:48:35.014Z,1.75
2023-01-17T12:51:17.451Z,2.20
2023-01-17T12:54:02.194Z,4.97
2023-01-17T12:56:40.958Z,3.63
2023-01-17T12:59:35.347Z,2.25
2023-01-17T13:02:17.767Z,1.83
2023-01-17T13:05:02.056Z,2.30
2023-01-17T13:07:51.811Z,1.70
2023-01-17T13:10:36.024Z,2.03
2023-01-17T13:13:24.107Z,2.65
2023-01-17T13:16:16.564Z,0.70
2023-01-17T13:18:49.187Z,2.72
2023-01-17T13:21:30.027Z,1.60
2023-01-17T13:24:03.292Z,1.77
2023-01-17T13:27:07.675Z,1.55
2023-01-17T13:30:27.536Z,2.58
2023-01-17T13:33:19.065Z,2.85
2023-01-17T13:36:08.641Z,2.67
2023-01-17T13:39:16.569Z,2.78
2023-01-17T13:42:21.777Z,2.25
2023-01-17T13:44:53.429Z,1.95
2023-01-17T13:47:24.447Z,2.20
2023-01-17T13:49:56.425Z,2.47
2023-01-17T13:52:33.267Z,3.90
2023-01-17T13:55:07.151Z,2.65
2023-01-17T13:57:46.189Z,1.75
2023-01-17T14:02:51.923Z,3.53
2023-01-17T14:05:38.213Z,2.67
2023-01-17T14:08:18.965Z,2.50
2023-01-17T14:10:53.388Z,3.35
2023-01-17T14:13:38.900Z,2.80
2023-01-17T14:16:22.120Z,4.72
2023-01-17T14:18:50.234Z,3.72
2023-01-17T14:21:32.240Z,4.85
2023-01-17T14:24:04.069Z,2.97
2023-01-17T14:26:54.324Z,3.38
2023-01-17T14:29:56.196Z,6.53
2023-01-17T14:32:33.560Z,7.20
2023-01-17T14:35:01.832Z,5.70
2023-01-17T14:37:32.621Z,6.28
2023-01-17T14:40:01.393Z,2.65
2023-01-17T14:42:31.187Z,7.80
2023-01-17T14:45:13.966Z,7.25
2023-01-17T14:47:48.004Z,4.05
2023-01-17T14:50:24.835Z,4.13
2023-01-17T14:53:11.504Z,7.95
2023-01-17T14:55:48.351Z,5.53
2023-01-17T14:58:23.071Z,8.10
2023-01-17T15:01:01.795Z,6.60
2023-01-17T15:03:42.928Z,7.15
2023-01-17T15:06:20.558Z,6.78
2023-01-17T15:08:49.506Z,5.07
2023-01-17T15:11:30.920Z,7.82
2023-01-17T15:14:05.734Z,5.35
2023-01-17T15:16:38.008Z,5.45
2023-01-17T15:19:14.665Z,6.47
2023-01-17T15:21:46.382Z,7.45
2023-01-17T15:24:26.552Z,8.45
2023-01-17T15:26:54.675Z,6.03
2023-01-17T15:29:32.198Z,9.23
2023-01-17T15:32:05.999Z,7.65
2023-01-17T15:34:43.236Z,6.57
2023-01-17T15:37:38.982Z,6.35
2023-01-17T15:40:25.353Z,6.97
2023-01-17T15:43:00.840Z,6.95
2023-01-17T15:45:34.027Z,5.90
2023-01-17T15:48:43.359Z,7.32
2023-01-17T15:51:13.667Z,6.47
2023-01-17T15:53:44.151Z,8.80
2023-01-17T15:56:32.963Z,7.73
2023-01-17T15:59:22.359Z,10.32
2023-01-17T16:01:55.674Z,6.43
2023-01-17T16:04:35.234Z,10.13
2023-01-17T16:07:22.623Z,13.30
2023-01-17T16:09:50.763Z,10.18
2023-01-17T16:12:18.589Z,10.48
2023-01-17T16:15:02.753Z,8.98
2023-01-17T16:17:34.167Z,9.30
2023-01-17T16:20:01.931Z,13.35
2023-01-17T16:22:29.534Z,12.45
2023-01-17T16:24:57.533Z,11.35
2023-01-17T16:27:25.181Z,15.25
2023-01-17T16:29:55.089Z,15.02
2023-01-17T16:32:23.885Z,11.85
2023-01-17T16:34:51.424Z,16.40
2023-01-17T16:37:21.951Z,10.13
2023-01-17T16:39:49.885Z,12.48
2023-01-17T16:42:17.434Z,10.27
2023-01-17T16:44:44.968Z,18.20
2023-01-17T16:47:12.649Z,13.07
2023-01-17T16:49:40.333Z,12.98
2023-01-17T16:52:07.909Z,13.80
2023-01-17T16:54:35.453Z,15.30
2023-01-17T16:57:03.076Z,8.70
2023-01-17T16:59:42.544Z,8.15
2023-01-17T17:02:18.534Z,8.25
2023-01-17T17:04:46.721Z,10.15
2023-01-17T17:07:14.677Z,10.57
2023-01-17T17:09:42.502Z,10.53
2023-01-17T17:12:15.195Z,8.18
2023-01-17T17:14:42.924Z,12.63
2023-01-17T17:17:10.509Z,9.30
2023-01-17T17:19:38.146Z,9.05
2023-01-17T17:22:06.540Z,9.55
2023-01-17T17:24:38.073Z,11.35
2023-01-17T17:27:05.705Z,10.18
2023-01-17T17:29:33.428Z,8.95
2023-01-17T17:32:01.012Z,8.35
2023-01-17T17:34:30.710Z,13.80
2023-01-17T17:36:58.225Z,12.63
2023-01-17T17:39:25.925Z,11.10
2023-01-17T17:41:53.601Z,14.60
2023-01-17T17:44:21.206Z,15.50
2023-01-17T17:46:51.021Z,10.50
2023-01-17T17:49:18.755Z,12.50
2023-01-17T17:51:46.447Z,9.52
2023-01-17T17:54:15.959Z,13.95
2023-01-17T17:56:47.417Z,12.02
2023-01-17T17:59:20.482Z,8.82
2023-01-17T18:01:48.716Z,9.05
2023-01-17T18:04:17.044Z,10.02
2023-01-17T18:06:44.948Z,11.55
2023-01-17T18:09:14.258Z,12.55
2023-01-17T18:14:14.946Z,12.05
2023-01-17T18:16:44.822Z,11.50
2023-01-17T18:19:20.323Z,11.63
2023-01-17T18:21:49.457Z,10.73
2023-01-17T18:26:52.678Z,12.85
2023-01-17T18:29:22.110Z,13.30
2023-01-17T18:31:51.526Z,12.07
2023-01-17T18:34:24.041Z,10.77
2023-01-17T18:36:55.775Z,12.50
2023-01-17T18:39:29.323Z,12.00
2023-01-17T18:41:58.104Z,13.40
2023-01-17T18:44:27.390Z,15.02
2023-01-17T18:46:57.945Z,11.70
2023-01-17T18:49:25.691Z,9.98
2023-01-17T18:51:53.672Z,19.80
2023-01-17T18:54:21.979Z,14.32
2023-01-17T18:56:50.973Z,16.88
2023-01-17T18:59:18.753Z,16.95
2023-01-17T19:01:46.830Z,18.90
2023-01-17T19:04:17.216Z,14.02
2023-01-17T19:06:51.065Z,16.58
2023-01-17T19:09:18.885Z,17.15
2023-01-17T19:11:50.091Z,15.98
2023-01-17T19:14:17.654Z,21.27
2023-01-17T19:16:45.216Z,17.42
2023-01-17T19:19:15.242Z,18.08
2023-01-17T19:21:43.073Z,16.00
2023-01-17T19:24:14.434Z,17.13
2023-01-17T19:26:43.134Z,16.30
2023-01-17T19:29:12.050Z,19.52
2023-01-17T19:31:42.892Z,18.05
2023-01-17T19:34:14.133Z,19.02
2023-01-17T19:36:42.451Z,17.92
2023-01-17T19:39:10.440Z,16.98
2023-01-17T19:41:43.799Z,18.85
2023-01-17T19:44:14.098Z,19.85
2023-01-17T19:46:42.329Z,15.60
2023-01-17T19:49:10.377Z,15.40
2023-01-17T19:51:39.628Z,22.33
2023-01-17T19:54:08.371Z,21.25
2023-01-17T19:56:36.859Z,23.50
2023-01-17T19:59:04.653Z,22.13
2023-01-17T20:01:34.365Z,21.15
2023-01-17T20:04:04.117Z,21.15
2023-01-17T20:06:36.688Z,22.23
2023-01-17T20:09:05.830Z,21.00
2023-01-17T20:14:01.302Z,15.23
2023-01-17T20:16:31.808Z,17.52
2023-01-17T20:19:00.173Z,18.05
2023-01-17T20:21:30.129Z,21.52
2023-01-17T20:24:00.093Z,20.55
2023-01-17T20:26:35.342Z,23.02
2023-01-17T20:29:10.358Z,24.25
2023-01-17T20:31:40.532Z,20.17
2023-01-17T20:34:12.265Z,17.80
2023-01-17T20:36:44.239Z,19.38
2023-01-17T20:39:14.714Z,19.38
2023-01-17T20:41:45.579Z,25.73
2023-01-17T20:44:15.607Z,20.45
2023-01-17T20:46:44.241Z,20.58
2023-01-17T20:49:19.119Z,23.63
2023-01-17T20:51:47.922Z,24.65
2023-01-17T20:54:18.501Z,25.33
2023-01-17T20:56:47.737Z,18.67
2023-01-17T20:59:19.642Z,27.95
2023-01-17T21:01:48.698Z,23.25
2023-01-17T21:04:20.013Z,21.73
2023-01-17T21:06:47.717Z,23.42
2023-01-17T21:09:17.103Z,24.75
2023-01-17T21:11:45.027Z,21.08
2023-01-17T21:14:22.109Z,23.63
2023-01-17T21:16:59.435Z,20.27
2023-01-17T21:19:27.579Z,25.85
2023-01-17T21:21:56.234Z,30.73
2023-01-17T21:24:24.167Z,26.10
2023-01-17T21:26:52.466Z,25.63
2023-01-17T21:29:20.259Z,28.83
2023-01-17T21:31:47.984Z,22.08
2023-01-17T21:34:15.587Z,27.10
2023-01-17T21:36:43.546Z,25.35
2023-01-17T21:39:17.431Z,22.10
2023-01-17T21:41:48.258Z,20.33
2023-01-17T21:44:20.067Z,22.30
2023-01-17T21:46:53.486Z,21.25
2023-01-17T21:49:23.233Z,28.75
2023-01-17T21:51:53.779Z,24.08
2023-01-17T21:54:44.784Z,24.73
2023-01-17T21:57:34.592Z,31.05
2023-01-17T22:00:07.492Z,24.80
2023-01-17T22:02:45.753Z,23.77
2023-01-17T22:05:16.404Z,26.27
2023-01-17T22:08:04.861Z,19.98
2023-01-17T22:10:44.345Z,27.45
2023-01-17T22:13:19.564Z,21.45
2023-01-17T22:15:57.938Z,23.38
2023-01-17T22:18:25.940Z,25.60
2023-01-17T22:20:53.606Z,26.67
2023-01-17T22:23:21.654Z,28.30
2023-01-17T22:25:49.402Z,29.77
2023-01-17T22:28:17.067Z,26.00
2023-01-17T22:30:44.814Z,25.13
2023-01-17T22:33:12.414Z,22.45
2023-01-17T22:35:39.964Z,26.50
2023-01-17T22:38:07.694Z,23.73
2023-01-17T22:40:38.116Z,23.77
2023-01-17T22:43:05.936Z,33.20
2023-01-17T22:45:33.492Z,26.25
2023-01-17T22:48:01.245Z,24.38
2023-01-17T22:50:29.122Z,27.85
2023-01-17T22:52:57.437Z,24.77
2023-01-17T22:55:25.419Z,27.10
2023-01-17T22:57:52.998Z,22.40
2023-01-17T23:00:22.876Z,24.35
2023-01-17T23:02:50.862Z,27.80
2023-01-17T23:05:18.932Z,27.80
2023-01-17T23:07:50.387Z,26.40
2023-01-17T23:10:38.086Z,22.88
2023-01-17T23:13:11.063Z,29.33
2023-01-17T23:15:57.645Z,23.02
2023-01-17T23:18:43.733Z,24.17
2023-01-17T23:21:11.472Z,22.55
2023-01-17T23:23:39.027Z,26.35
2023-01-17T23:26:07.012Z,25.80
2023-01-17T23:28:34.618Z,25.80
2023-01-17T23:31:04.762Z,26.17
2023-01-17T23:33:32.533Z,21.10
2023-01-17T23:36:00.193Z,24.05
2023-01-17T23:38:30.497Z,27.42
2023-01-17T23:41:26.300Z,21.95
2023-01-17T23:43:58.725Z,23.60
2023-01-17T23:46:28.604Z,28.27
2023-01-17T23:48:56.551Z,27.58
2023-01-17T23:51:24.727Z,33.85
2023-01-17T23:53:57.241Z,28.75
2023-01-17T23:56:25.690Z,32.65
2023-01-17T23:58:53.500Z,26.30
